createdAt,value
2022-12-05T00:04:22.625Z,51.8
2022-12-05T00:09:45.691Z,51.8
2022-12-05T00:15:08.101Z,51.7
2022-12-05T00:20:30.745Z,51.6
2022-12-05T00:26:09.167Z,51.6
2022-12-05T00:31:46.030Z,51.6
2022-12-05T00:37:07.099Z,51.6
2022-12-05T00:42:52.512Z,51.5
2022-12-05T00:48:30.987Z,51.5
2022-12-05T00:53:53.386Z,51.4
2022-12-05T00:59:31.206Z,51.4
2022-12-05T01:05:09.973Z,51.4
2022-12-05T01:10:32.731Z,51.3
2022-12-05T01:15:58.183Z,51.3
2022-12-05T01:21:21.083Z,51.3
2022-12-05T01:26:58.496Z,51.2
2022-12-05T01:32:22.189Z,51.2
2022-12-05T01:37:59.942Z,51.1
2022-12-05T01:43:26.556Z,51.1
2022-12-05T01:48:49.342Z,51.1
2022-12-05T01:54:12.344Z,51
2022-12-05T01:59:34.451Z,51
2022-12-05T02:04:57.664Z,50.9
2022-12-05T02:10:20.746Z,51
2022-12-05T02:15:45.224Z,52.1
2022-12-05T02:21:23.110Z,53.6
2022-12-05T02:27:00.543Z,55.2
2022-12-05T02:32:37.775Z,57
2022-12-05T02:37:59.375Z,57.9
2022-12-05T02:43:37.758Z,58
2022-12-05T02:49:15.374Z,57.9
2022-12-05T02:54:53.284Z,57.9
2022-12-05T03:00:30.831Z,57.9
2022-12-05T03:06:08.886Z,59.2
2022-12-05T03:11:47.010Z,60.3
2022-12-05T03:17:09.741Z,60.3
2022-12-05T03:22:48.033Z,60.3
2022-12-05T03:28:25.779Z,60.3
2022-12-05T03:33:48.437Z,60.3
2022-12-05T03:39:25.482Z,60.2
2022-12-05T03:44:49.667Z,60.1
2022-12-05T03:50:27.473Z,60.1
2022-12-05T03:56:24.686Z,60.1
2022-12-05T04:02:02.853Z,60
2022-12-05T04:07:25.193Z,60
2022-12-05T04:13:03.709Z,59.9
2022-12-05T04:18:43.158Z,59.9
2022-12-05T04:24:21.138Z,59.8
2022-12-05T04:29:28.002Z,59.8
2022-12-05T04:34:51.261Z,59.8
2022-12-05T04:40:03.982Z,59.7
2022-12-05T04:44:54.793Z,59.7
2022-12-05T04:50:23.308Z,59.6
2022-12-05T04:55:46.218Z,59.6
2022-12-05T05:01:29.505Z,59.6
2022-12-05T05:07:12.661Z,59.5
2022-12-05T05:12:52.482Z,59.4
2022-12-05T05:18:29.699Z,59.4
2022-12-05T05:24:07.779Z,59.3
2022-12-05T05:29:47.757Z,59.3
2022-12-05T05:35:15.730Z,59.2
2022-12-05T05:41:00.250Z,59.2
2022-12-05T05:46:38.160Z,59.1
2022-12-05T05:52:22.479Z,59.1
2022-12-05T05:58:09.663Z,59
2022-12-05T06:03:17.263Z,59
2022-12-05T06:09:01.183Z,58.9
2022-12-05T06:14:39.016Z,58.9
2022-12-05T06:20:17.784Z,58.8
2022-12-05T06:26:00.693Z,58.8
2022-12-05T06:31:44.120Z,58.8
2022-12-05T06:37:21.764Z,58.7
2022-12-05T06:42:59.163Z,58.6
2022-12-05T06:54:04.624Z,58.5
2022-12-05T06:59:42.304Z,58.5
2022-12-05T07:05:21.555Z,58.4
2022-12-05T07:11:05.921Z,58.4
2022-12-05T07:17:09.245Z,58.4
2022-12-05T07:23:21.770Z,58.3
2022-12-05T07:29:06.345Z,58.3
2022-12-05T07:34:29.323Z,58.2
2022-12-05T07:40:06.980Z,58.1
2022-12-05T07:45:45.895Z,58.1
2022-12-05T07:51:26.206Z,58.1
2022-12-05T07:57:04.612Z,58
2022-12-05T08:02:43.488Z,57.9
2022-12-05T08:08:26.105Z,57.9
2022-12-05T08:14:10.414Z,57.9
2022-12-05T08:19:50.871Z,57.8
2022-12-05T08:25:13.077Z,57.8
2022-12-05T08:36:17.162Z,57.7
2022-12-05T08:41:56.748Z,57.6
2022-12-05T08:47:35.878Z,57.6
2022-12-05T08:53:17.148Z,57.6
2022-12-05T08:59:05.133Z,57.5
2022-12-05T09:04:53.658Z,57.4
2022-12-05T09:10:48.682Z,57.4
2022-12-05T09:16:27.367Z,57.4
2022-12-05T09:22:06.836Z,57.3
2022-12-05T09:27:48.765Z,57.3
2022-12-05T09:33:32.122Z,57.2
2022-12-05T09:39:39.396Z,57.2
2022-12-05T09:45:17.475Z,57.1
2022-12-05T09:50:56.310Z,57.1
2022-12-05T09:56:38.698Z,57
2022-12-05T10:02:22.743Z,56.9
2022-12-05T10:08:07.729Z,56.9
2022-12-05T10:13:46.363Z,56.9
2022-12-05T10:19:27.680Z,56.8
2022-12-05T10:25:40.325Z,56.8
2022-12-05T10:31:21.593Z,56.8
2022-12-05T10:37:07.926Z,56.7
2022-12-05T10:42:51.685Z,56.6
2022-12-05T10:48:35.077Z,56.6
2022-12-05T10:54:13.046Z,56.6
2022-12-05T11:00:35.648Z,56.5
2022-12-05T11:06:17.706Z,56.4
2022-12-05T11:12:28.455Z,56.4
2022-12-05T11:18:13.327Z,56.4
2022-12-05T11:23:54.604Z,56.3
2022-12-05T11:29:36.989Z,56.3
2022-12-05T11:35:15.973Z,56.2
2022-12-05T11:41:01.116Z,56.2
2022-12-05T11:46:26.779Z,56.1
2022-12-05T11:51:49.450Z,56.1
2022-12-05T11:58:09.137Z,56
2022-12-05T12:03:50.166Z,56
2022-12-05T12:09:28.837Z,55.9
2022-12-05T12:15:12.593Z,55.9
2022-12-05T12:20:56.922Z,55.8
2022-12-05T12:26:40.592Z,55.8
2022-12-05T12:32:21.067Z,55.7
2022-12-05T12:37:44.636Z,55.7
2022-12-05T12:43:51.948Z,55.6
2022-12-05T12:49:36.506Z,55.6
2022-12-05T12:55:51.435Z,55.6
2022-12-05T13:01:33.619Z,55.5
2022-12-05T13:07:17.332Z,55.4
2022-12-05T13:12:59.459Z,55.4
2022-12-05T13:18:26.161Z,55.4
2022-12-05T13:23:54.199Z,55.3
2022-12-05T13:29:32.477Z,55.3
2022-12-05T13:35:02.427Z,55.3
2022-12-05T13:40:45.549Z,55.2
2022-12-05T13:46:39.821Z,55.2
2022-12-05T13:52:23.229Z,55.1
2022-12-05T13:58:06.977Z,55.1
2022-12-05T14:03:50.389Z,55
2022-12-05T14:09:27.898Z,55
2022-12-05T14:15:10.991Z,54.9
2022-12-05T14:20:56.621Z,54.9
2022-12-05T14:26:47.161Z,54.9
2022-12-05T14:32:25.667Z,54.8
2022-12-05T14:38:06.563Z,54.8
2022-12-05T14:43:45.032Z,54.7
2022-12-05T14:49:20.426Z,54.6
2022-12-05T14:54:44.995Z,54.6
2022-12-05T15:00:30.581Z,54.5
2022-12-05T15:06:15.381Z,54.4
2022-12-05T15:12:26.518Z,54.4
2022-12-05T15:18:05.506Z,54.3
2022-12-05T15:23:47.945Z,54.3
2022-12-05T15:29:57.055Z,54.3
2022-12-05T15:35:19.383Z,54.2
2022-12-05T15:41:02.204Z,54.1
2022-12-05T15:46:48.769Z,54.1
2022-12-05T15:52:26.371Z,54.1
2022-12-05T15:58:13.175Z,54
2022-12-05T16:03:52.251Z,54
2022-12-05T16:09:34.656Z,53.9
2022-12-05T16:15:52.453Z,53.9
2022-12-05T16:21:15.884Z,53.8
2022-12-05T16:26:58.847Z,53.8
2022-12-05T16:32:37.230Z,53.8
2022-12-05T16:38:16.068Z,53.7
2022-12-05T16:43:54.285Z,53.6
2022-12-05T16:49:45.938Z,53.6
2022-12-05T16:55:08.758Z,53.6
2022-12-05T17:00:31.141Z,53.5
2022-12-05T17:06:24.776Z,53.4
2022-12-05T17:12:06.603Z,53.4
2022-12-05T17:17:32.806Z,53.4
2022-12-05T17:23:16.304Z,53.3
2022-12-05T17:34:07.505Z,53.2
2022-12-05T17:39:46.113Z,53.1
2022-12-05T17:45:27.033Z,53.1
2022-12-05T17:50:51.173Z,53.1
2022-12-05T17:56:39.258Z,53
2022-12-05T18:02:01.596Z,52.9
2022-12-05T18:07:28.388Z,52.9
2022-12-05T18:12:50.808Z,52.9
2022-12-05T18:18:03.091Z,52.8
2022-12-05T18:23:27.898Z,52.8
2022-12-05T18:28:37.252Z,52.8
2022-12-05T18:34:16.049Z,52.7
2022-12-05T18:39:44.965Z,52.6
2022-12-05T18:45:07.661Z,52.6
2022-12-05T18:51:17.825Z,52.6
2022-12-05T18:57:59.853Z,52.5
2022-12-05T19:03:42.519Z,52.5
2022-12-05T19:09:20.820Z,52.4
2022-12-05T19:25:19.261Z,52.3
2022-12-05T19:30:59.713Z,52.3
2022-12-05T19:36:24.518Z,52.3
2022-12-05T19:41:48.157Z,52.2
2022-12-05T19:47:32.512Z,52.1
2022-12-05T19:52:55.642Z,52.1
2022-12-05T19:58:37.707Z,52.1
2022-12-05T20:04:20.825Z,52
2022-12-05T20:21:03.547Z,51.9
2022-12-05T20:26:26.969Z,51.8
2022-12-05T20:32:05.606Z,51.8
2022-12-05T20:37:46.454Z,51.8
2022-12-05T20:43:11.906Z,51.7
2022-12-05T20:48:49.893Z,51.6
2022-12-05T20:54:27.762Z,51.6
2022-12-05T21:00:06.647Z,51.6
2022-12-05T21:05:51.438Z,51.5
2022-12-05T21:11:32.171Z,51.5
2022-12-05T21:17:10.487Z,51.4
2022-12-05T21:22:48.649Z,51.4
2022-12-05T21:28:26.839Z,51.4
2022-12-05T21:33:49.771Z,51.3
2022-12-05T21:39:29.332Z,51.3
2022-12-05T21:44:43.272Z,51.2
2022-12-05T21:50:10.929Z,51.2
2022-12-05T21:55:48.936Z,51.1
2022-12-05T22:01:32.686Z,51.1
2022-12-05T22:06:55.830Z,51.1
2022-12-05T22:12:38.492Z,51
2022-12-05T22:18:16.978Z,50.9
2022-12-05T22:23:55.699Z,50.9
2022-12-05T22:29:33.065Z,50.9
2022-12-05T22:35:19.954Z,50.8
2022-12-05T22:40:42.436Z,50.8
2022-12-05T22:46:20.468Z,50.8
2022-12-05T22:51:59.689Z,50.7
2022-12-05T22:57:38.287Z,50.7
2022-12-05T23:03:16.441Z,50.6
2022-12-05T23:08:58.808Z,50.6
2022-12-05T23:14:36.764Z,50.5
2022-12-05T23:20:16.621Z,50.5
2022-12-05T23:25:54.579Z,50.4
2022-12-05T23:31:32.652Z,50.4
2022-12-05T23:37:12.502Z,50.4
2022-12-05T23:42:50.906Z,50.4
2022-12-05T23:48:30.362Z,50.3
2022-12-05T23:54:07.805Z,50.3
2022-12-05T23:59:36.165Z,50.2
